sensor_id;sensor_type;location;lat;lon;timestamp;pressure;altitude;pressure_sealevel;temperature;humidity
55755;BME280;41674;52.290;-1.474;2023-06-22T00:01:09;101210.82;;;17.80;77.58
55755;BME280;41674;52.290;-1.474;2023-06-22T00:03:38;101204.90;;;19.08;71.90
55755;BME280;41674;52.290;-1.474;2023-06-22T00:06:08;101210.40;;;18.30;75.12
55755;BME280;41674;52.290;-1.474;2023-06-22T00:08:37;101206.32;;;18.92;73.35
55755;BME280;41674;52.290;-1.474;2023-06-22T00:11:06;101203.94;;;18.84;72.38
55755;BME280;41674;52.290;-1.474;2023-06-22T00:13:36;101208.05;;;18.99;73.79
55755;BME280;41674;52.290;-1.474;2023-06-22T00:16:05;101202.79;;;19.12;72.45
55755;BME280;41674;52.290;-1.474;2023-06-22T00:18:35;101207.83;;;19.07;72.60
55755;BME280;41674;52.290;-1.474;2023-06-22T00:21:04;101214.47;;;19.08;72.31
55755;BME280;41674;52.290;-1.474;2023-06-22T00:23:34;101218.14;;;18.60;74.04
55755;BME280;41674;52.290;-1.474;2023-06-22T00:26:03;101213.41;;;18.42;75.25
55755;BME280;41674;52.290;-1.474;2023-06-22T00:28:34;101212.96;;;18.80;73.73
55755;BME280;41674;52.290;-1.474;2023-06-22T00:31:03;101205.14;;;18.88;72.60
55755;BME280;41674;52.290;-1.474;2023-06-22T00:33:32;101211.24;;;19.02;72.79
55755;BME280;41674;52.290;-1.474;2023-06-22T00:36:02;101213.85;;;19.00;73.53
55755;BME280;41674;52.290;-1.474;2023-06-22T00:38:31;101210.46;;;18.71;73.01
55755;BME280;41674;52.290;-1.474;2023-06-22T00:41:00;101212.42;;;18.87;73.81
55755;BME280;41674;52.290;-1.474;2023-06-22T00:43:30;101212.84;;;19.08;72.94
55755;BME280;41674;52.290;-1.474;2023-06-22T00:45:59;101219.17;;;19.07;73.82
55755;BME280;41674;52.290;-1.474;2023-06-22T00:48:29;101214.21;;;19.25;73.51
55755;BME280;41674;52.290;-1.474;2023-06-22T00:50:59;101211.22;;;19.29;73.62
55755;BME280;41674;52.290;-1.474;2023-06-22T00:53:28;101219.26;;;18.54;74.89
55755;BME280;41674;52.290;-1.474;2023-06-22T00:55:58;101221.09;;;18.79;73.94
55755;BME280;41674;52.290;-1.474;2023-06-22T00:58:27;101225.91;;;18.35;74.86
55755;BME280;41674;52.290;-1.474;2023-06-22T01:00:57;101222.48;;;18.78;74.62
55755;BME280;41674;52.290;-1.474;2023-06-22T01:03:31;101221.47;;;19.01;74.31
55755;BME280;41674;52.290;-1.474;2023-06-22T01:08:31;101226.57;;;18.54;74.80
55755;BME280;41674;52.290;-1.474;2023-06-22T01:11:01;101224.16;;;18.94;72.82
55755;BME280;41674;52.290;-1.474;2023-06-22T01:13:29;101228.13;;;19.55;71.25
55755;BME280;41674;52.290;-1.474;2023-06-22T01:18:24;101231.12;;;19.15;72.00
55755;BME280;41674;52.290;-1.474;2023-06-22T01:20:54;101234.55;;;19.54;71.70
55755;BME280;41674;52.290;-1.474;2023-06-22T01:23:29;101244.33;;;19.71;71.22
55755;BME280;41674;52.290;-1.474;2023-06-22T01:26:04;101242.73;;;19.09;69.18
55755;BME280;41674;52.290;-1.474;2023-06-22T01:28:36;101249.71;;;18.96;72.90
55755;BME280;41674;52.290;-1.474;2023-06-22T01:30:51;101243.24;;;19.28;72.13
55755;BME280;41674;52.290;-1.474;2023-06-22T01:33:20;101244.16;;;19.18;72.28
55755;BME280;41674;52.290;-1.474;2023-06-22T01:35:49;101249.87;;;18.46;74.66
55755;BME280;41674;52.290;-1.474;2023-06-22T01:38:19;101242.17;;;18.59;72.89
55755;BME280;41674;52.290;-1.474;2023-06-22T01:40:49;101244.78;;;18.16;75.58
55755;BME280;41674;52.290;-1.474;2023-06-22T01:43:18;101247.19;;;18.53;73.88
55755;BME280;41674;52.290;-1.474;2023-06-22T01:45:47;101250.44;;;17.91;75.71
55755;BME280;41674;52.290;-1.474;2023-06-22T01:48:17;101253.29;;;18.28;75.89
55755;BME280;41674;52.290;-1.474;2023-06-22T01:50:47;101255.14;;;17.26;77.81
55755;BME280;41674;52.290;-1.474;2023-06-22T01:53:16;101253.97;;;18.00;75.97
55755;BME280;41674;52.290;-1.474;2023-06-22T01:55:45;101253.49;;;17.65;77.86
55755;BME280;41674;52.290;-1.474;2023-06-22T01:58:15;101254.04;;;18.34;75.93
55755;BME280;41674;52.290;-1.474;2023-06-22T02:00:48;101251.59;;;18.00;76.30
55755;BME280;41674;52.290;-1.474;2023-06-22T02:03:17;101250.16;;;17.69;77.10
55755;BME280;41674;52.290;-1.474;2023-06-22T02:05:49;101252.47;;;17.58;77.83
55755;BME280;41674;52.290;-1.474;2023-06-22T02:08:17;101256.83;;;18.22;76.58
55755;BME280;41674;52.290;-1.474;2023-06-22T02:10:43;101257.62;;;18.06;76.67
55755;BME280;41674;52.290;-1.474;2023-06-22T02:13:13;101256.52;;;18.19;76.73
55755;BME280;41674;52.290;-1.474;2023-06-22T02:15:42;101258.74;;;18.49;75.47
55755;BME280;41674;52.290;-1.474;2023-06-22T02:18:11;101257.23;;;17.90;76.66
55755;BME280;41674;52.290;-1.474;2023-06-22T02:20:41;101256.67;;;18.01;76.95
55755;BME280;41674;52.290;-1.474;2023-06-22T02:23:25;101253.10;;;18.18;76.32
55755;BME280;41674;52.290;-1.474;2023-06-22T02:25:40;101252.68;;;17.93;75.90
55755;BME280;41674;52.290;-1.474;2023-06-22T02:28:09;101261.00;;;18.25;73.59
55755;BME280;41674;52.290;-1.474;2023-06-22T02:30:39;101261.81;;;18.47;73.03
55755;BME280;41674;52.290;-1.474;2023-06-22T02:33:08;101261.98;;;17.82;76.00
55755;BME280;41674;52.290;-1.474;2023-06-22T02:35:38;101260.55;;;17.37;78.00
55755;BME280;41674;52.290;-1.474;2023-06-22T02:38:08;101260.03;;;17.42;77.91
55755;BME280;41674;52.290;-1.474;2023-06-22T02:40:37;101258.46;;;18.27;75.98
55755;BME280;41674;52.290;-1.474;2023-06-22T02:43:07;101256.07;;;18.00;76.27
55755;BME280;41674;52.290;-1.474;2023-06-22T02:45:36;101255.38;;;18.21;76.41
55755;BME280;41674;52.290;-1.474;2023-06-22T02:48:05;101251.27;;;18.16;77.06
55755;BME280;41674;52.290;-1.474;2023-06-22T02:50:35;101250.21;;;17.85;77.74
55755;BME280;41674;52.290;-1.474;2023-06-22T02:53:04;101252.79;;;18.09;77.01
55755;BME280;41674;52.290;-1.474;2023-06-22T02:55:34;101253.22;;;18.42;76.95
55755;BME280;41674;52.290;-1.474;2023-06-22T02:58:03;101254.88;;;17.91;77.02
55755;BME280;41674;52.290;-1.474;2023-06-22T03:00:33;101251.88;;;17.92;77.02
55755;BME280;41674;52.290;-1.474;2023-06-22T03:03:02;101251.44;;;18.04;78.32
55755;BME280;41674;52.290;-1.474;2023-06-22T03:05:32;101253.72;;;17.81;76.69
55755;BME280;41674;52.290;-1.474;2023-06-22T03:08:02;101251.44;;;17.81;75.89
55755;BME280;41674;52.290;-1.474;2023-06-22T03:10:31;101251.21;;;18.23;74.62
55755;BME280;41674;52.290;-1.474;2023-06-22T03:13:00;101244.01;;;18.39;73.24
55755;BME280;41674;52.290;-1.474;2023-06-22T03:15:30;101243.42;;;18.87;71.95
55755;BME280;41674;52.290;-1.474;2023-06-22T03:18:00;101247.82;;;18.37;73.10
55755;BME280;41674;52.290;-1.474;2023-06-22T03:20:29;101248.33;;;18.07;73.45
55755;BME280;41674;52.290;-1.474;2023-06-22T03:22:59;101242.97;;;18.87;70.77
55755;BME280;41674;52.290;-1.474;2023-06-22T03:25:28;101249.88;;;18.86;71.55
55755;BME280;41674;52.290;-1.474;2023-06-22T03:27:58;101250.83;;;18.83;71.70
55755;BME280;41674;52.290;-1.474;2023-06-22T03:30:27;101252.37;;;18.14;75.13
55755;BME280;41674;52.290;-1.474;2023-06-22T03:35:36;101257.84;;;18.06;75.82
55755;BME280;41674;52.290;-1.474;2023-06-22T03:37:56;101255.92;;;18.07;75.42
55755;BME280;41674;52.290;-1.474;2023-06-22T03:40:25;101254.67;;;18.05;75.05
55755;BME280;41674;52.290;-1.474;2023-06-22T03:42:55;101253.18;;;18.03;75.28
55755;BME280;41674;52.290;-1.474;2023-06-22T03:45:24;101250.72;;;17.33;78.65
55755;BME280;41674;52.290;-1.474;2023-06-22T03:47:53;101246.19;;;17.47;76.87
55755;BME280;41674;52.290;-1.474;2023-06-22T03:50:23;101246.21;;;17.99;76.34
55755;BME280;41674;52.290;-1.474;2023-06-22T03:52:52;101241.31;;;17.52;78.36
55755;BME280;41674;52.290;-1.474;2023-06-22T03:55:22;101237.33;;;17.86;77.15
55755;BME280;41674;52.290;-1.474;2023-06-22T03:57:52;101239.19;;;17.76;77.27
55755;BME280;41674;52.290;-1.474;2023-06-22T04:00:21;101244.69;;;17.60;77.79
55755;BME280;41674;52.290;-1.474;2023-06-22T04:02:51;101242.15;;;17.67;77.43
55755;BME280;41674;52.290;-1.474;2023-06-22T04:05:20;101246.98;;;17.16;79.18
55755;BME280;41674;52.290;-1.474;2023-06-22T04:07:50;101250.11;;;17.24;79.10
55755;BME280;41674;52.290;-1.474;2023-06-22T04:10:19;101251.08;;;17.77;78.58
55755;BME280;41674;52.290;-1.474;2023-06-22T04:12:49;101246.75;;;17.68;76.79
55755;BME280;41674;52.290;-1.474;2023-06-22T04:15:18;101246.86;;;17.65;78.19
55755;BME280;41674;52.290;-1.474;2023-06-22T04:17:48;101248.22;;;17.60;78.56
55755;BME280;41674;52.290;-1.474;2023-06-22T04:20:17;101246.39;;;17.91;77.77
55755;BME280;41674;52.290;-1.474;2023-06-22T04:22:47;101245.58;;;17.91;77.28
55755;BME280;41674;52.290;-1.474;2023-06-22T04:25:17;101248.24;;;17.73;76.98
55755;BME280;41674;52.290;-1.474;2023-06-22T04:27:46;101250.78;;;17.58;79.01
55755;BME280;41674;52.290;-1.474;2023-06-22T04:30:15;101251.59;;;17.79;78.29
55755;BME280;41674;52.290;-1.474;2023-06-22T04:32:45;101251.45;;;17.97;77.41
55755;BME280;41674;52.290;-1.474;2023-06-22T04:35:14;101252.45;;;17.72;77.94
55755;BME280;41674;52.290;-1.474;2023-06-22T04:37:44;101250.99;;;17.85;78.22
55755;BME280;41674;52.290;-1.474;2023-06-22T04:40:13;101250.52;;;18.18;77.75
55755;BME280;41674;52.290;-1.474;2023-06-22T04:42:43;101248.42;;;17.71;78.93
55755;BME280;41674;52.290;-1.474;2023-06-22T04:45:13;101248.91;;;18.17;78.01
55755;BME280;41674;52.290;-1.474;2023-06-22T04:47:42;101250.13;;;17.59;80.38
55755;BME280;41674;52.290;-1.474;2023-06-22T04:50:12;101254.06;;;17.79;80.79
55755;BME280;41674;52.290;-1.474;2023-06-22T04:52:41;101256.87;;;17.71;81.41
55755;BME280;41674;52.290;-1.474;2023-06-22T04:55:11;101259.48;;;17.93;79.42
55755;BME280;41674;52.290;-1.474;2023-06-22T04:57:40;101260.21;;;18.19;79.51
55755;BME280;41674;52.290;-1.474;2023-06-22T05:00:11;101257.06;;;18.06;81.08
55755;BME280;41674;52.290;-1.474;2023-06-22T05:02:39;101257.98;;;18.33;81.23
55755;BME280;41674;52.290;-1.474;2023-06-22T05:05:08;101259.44;;;17.95;83.04
55755;BME280;41674;52.290;-1.474;2023-06-22T05:07:38;101265.89;;;18.38;83.17
55755;BME280;41674;52.290;-1.474;2023-06-22T05:10:08;101266.25;;;17.89;83.98
55755;BME280;41674;52.290;-1.474;2023-06-22T05:12:37;101263.63;;;18.24;82.12
55755;BME280;41674;52.290;-1.474;2023-06-22T05:15:07;101263.38;;;18.24;83.16
55755;BME280;41674;52.290;-1.474;2023-06-22T05:17:36;101265.02;;;18.45;83.89
55755;BME280;41674;52.290;-1.474;2023-06-22T05:20:07;101265.48;;;17.50;88.60
55755;BME280;41674;52.290;-1.474;2023-06-22T05:22:35;101268.67;;;18.67;85.20
55755;BME280;41674;52.290;-1.474;2023-06-22T05:25:07;101265.34;;;18.96;85.49
55755;BME280;41674;52.290;-1.474;2023-06-22T05:27:33;101267.13;;;18.94;86.00
55755;BME280;41674;52.290;-1.474;2023-06-22T05:30:03;101272.76;;;18.69;85.66
55755;BME280;41674;52.290;-1.474;2023-06-22T05:32:32;101271.79;;;19.29;84.67
55755;BME280;41674;52.290;-1.474;2023-06-22T05:35:02;101272.31;;;19.53;85.24
55755;BME280;41674;52.290;-1.474;2023-06-22T05:37:31;101269.73;;;19.72;84.95
55755;BME280;41674;52.290;-1.474;2023-06-22T05:40:00;101271.32;;;19.75;85.17
55755;BME280;41674;52.290;-1.474;2023-06-22T05:42:30;101277.46;;;19.93;84.77
55755;BME280;41674;52.290;-1.474;2023-06-22T05:44:59;101277.53;;;19.70;85.20
55755;BME280;41674;52.290;-1.474;2023-06-22T05:47:29;101283.76;;;19.18;84.64
55755;BME280;41674;52.290;-1.474;2023-06-22T05:49:59;101277.36;;;19.55;85.08
55755;BME280;41674;52.290;-1.474;2023-06-22T05:52:28;101275.29;;;19.44;83.78
55755;BME280;41674;52.290;-1.474;2023-06-22T05:54:57;101276.61;;;19.95;81.33
55755;BME280;41674;52.290;-1.474;2023-06-22T05:57:26;101277.14;;;19.57;82.09
55755;BME280;41674;52.290;-1.474;2023-06-22T05:59:56;101275.47;;;19.84;81.32
55755;BME280;41674;52.290;-1.474;2023-06-22T06:02:26;101280.47;;;19.70;81.14
55755;BME280;41674;52.290;-1.474;2023-06-22T06:04:55;101280.40;;;20.05;82.22
55755;BME280;41674;52.290;-1.474;2023-06-22T06:07:25;101277.37;;;20.14;83.19
55755;BME280;41674;52.290;-1.474;2023-06-22T06:09:54;101275.92;;;19.81;82.24
55755;BME280;41674;52.290;-1.474;2023-06-22T06:12:23;101278.56;;;20.06;78.74
55755;BME280;41674;52.290;-1.474;2023-06-22T06:14:58;101278.77;;;20.78;77.40
55755;BME280;41674;52.290;-1.474;2023-06-22T06:17:22;101282.11;;;20.70;77.69
55755;BME280;41674;52.290;-1.474;2023-06-22T06:19:52;101283.00;;;20.71;78.31
55755;BME280;41674;52.290;-1.474;2023-06-22T06:22:21;101279.64;;;19.80;80.77
55755;BME280;41674;52.290;-1.474;2023-06-22T06:24:56;101279.01;;;20.80;78.74
55755;BME280;41674;52.290;-1.474;2023-06-22T06:27:20;101280.44;;;20.79;78.86
55755;BME280;41674;52.290;-1.474;2023-06-22T06:29:49;101281.95;;;21.04;77.67
55755;BME280;41674;52.290;-1.474;2023-06-22T06:32:29;101283.81;;;21.07;76.05
55755;BME280;41674;52.290;-1.474;2023-06-22T06:34:49;101286.88;;;20.87;78.15
55755;BME280;41674;52.290;-1.474;2023-06-22T06:37:18;101286.67;;;20.44;78.47
55755;BME280;41674;52.290;-1.474;2023-06-22T06:39:48;101286.29;;;20.33;79.87
55755;BME280;41674;52.290;-1.474;2023-06-22T06:42:17;101285.40;;;21.29;77.00
55755;BME280;41674;52.290;-1.474;2023-06-22T06:44:46;101288.63;;;20.63;80.35
55755;BME280;41674;52.290;-1.474;2023-06-22T06:47:16;101290.00;;;19.98;79.97
55755;BME280;41674;52.290;-1.474;2023-06-22T06:49:45;101288.82;;;20.09;81.53
55755;BME280;41674;52.290;-1.474;2023-06-22T06:52:15;101290.37;;;20.99;76.45
55755;BME280;41674;52.290;-1.474;2023-06-22T06:54:44;101295.29;;;18.71;84.23
55755;BME280;41674;52.290;-1.474;2023-06-22T06:57:14;101291.86;;;20.58;80.34
55755;BME280;41674;52.290;-1.474;2023-06-22T06:59:43;101290.32;;;21.23;78.02
55755;BME280;41674;52.290;-1.474;2023-06-22T07:02:13;101297.89;;;20.94;79.49
55755;BME280;41674;52.290;-1.474;2023-06-22T07:04:42;101299.66;;;20.42;79.55
55755;BME280;41674;52.290;-1.474;2023-06-22T07:07:11;101297.37;;;21.46;74.79
55755;BME280;41674;52.290;-1.474;2023-06-22T07:09:41;101295.36;;;21.66;76.86
55755;BME280;41674;52.290;-1.474;2023-06-22T07:12:10;101295.49;;;21.04;78.21
55755;BME280;41674;52.290;-1.474;2023-06-22T07:14:40;101295.61;;;21.14;77.26
55755;BME280;41674;52.290;-1.474;2023-06-22T07:17:09;101297.18;;;21.12;77.72
55755;BME280;41674;52.290;-1.474;2023-06-22T07:19:39;101296.88;;;21.74;76.42
55755;BME280;41674;52.290;-1.474;2023-06-22T07:22:09;101289.46;;;21.43;76.90
55755;BME280;41674;52.290;-1.474;2023-06-22T07:24:38;101281.39;;;21.78;76.57
55755;BME280;41674;52.290;-1.474;2023-06-22T07:27:08;101279.89;;;21.05;78.67
55755;BME280;41674;52.290;-1.474;2023-06-22T07:29:38;101275.01;;;21.25;78.43
55755;BME280;41674;52.290;-1.474;2023-06-22T07:32:07;101273.53;;;20.73;80.28
55755;BME280;41674;52.290;-1.474;2023-06-22T07:34:36;101278.73;;;21.62;79.43
55755;BME280;41674;52.290;-1.474;2023-06-22T07:37:05;101284.32;;;20.18;82.56
55755;BME280;41674;52.290;-1.474;2023-06-22T07:39:35;101283.34;;;21.12;79.80
55755;BME280;41674;52.290;-1.474;2023-06-22T07:42:05;101281.75;;;21.29;78.52
55755;BME280;41674;52.290;-1.474;2023-06-22T07:44:34;101283.98;;;21.23;79.12
55755;BME280;41674;52.290;-1.474;2023-06-22T07:47:04;101283.56;;;21.42;79.23
55755;BME280;41674;52.290;-1.474;2023-06-22T07:49:33;101280.11;;;21.97;78.18
55755;BME280;41674;52.290;-1.474;2023-06-22T07:52:03;101280.68;;;21.24;80.44
55755;BME280;41674;52.290;-1.474;2023-06-22T07:54:32;101280.24;;;21.85;76.16
55755;BME280;41674;52.290;-1.474;2023-06-22T07:57:02;101276.94;;;22.01;73.60
55755;BME280;41674;52.290;-1.474;2023-06-22T07:59:31;101278.03;;;22.90;72.59
55755;BME280;41674;52.290;-1.474;2023-06-22T08:02:01;101280.78;;;19.57;83.43
55755;BME280;41674;52.290;-1.474;2023-06-22T08:04:30;101275.84;;;21.64;77.20
55755;BME280;41674;52.290;-1.474;2023-06-22T08:07:01;101280.07;;;22.15;74.42
55755;BME280;41674;52.290;-1.474;2023-06-22T08:09:30;101283.26;;;21.34;73.66
55755;BME280;41674;52.290;-1.474;2023-06-22T08:11:59;101284.91;;;21.52;73.66
55755;BME280;41674;52.290;-1.474;2023-06-22T08:14:30;101282.93;;;21.90;74.09
55755;BME280;41674;52.290;-1.474;2023-06-22T08:16:57;101286.78;;;22.24;73.16
55755;BME280;41674;52.290;-1.474;2023-06-22T08:19:27;101288.97;;;22.95;68.72
55755;BME280;41674;52.290;-1.474;2023-06-22T08:21:56;101284.12;;;21.92;70.97
55755;BME280;41674;52.290;-1.474;2023-06-22T08:24:26;101283.41;;;21.88;74.21
55755;BME280;41674;52.290;-1.474;2023-06-22T08:26:55;101284.03;;;22.42;72.50
55755;BME280;41674;52.290;-1.474;2023-06-22T08:29:25;101281.52;;;21.34;73.99
55755;BME280;41674;52.290;-1.474;2023-06-22T08:31:53;101277.18;;;21.66;73.60
55755;BME280;41674;52.290;-1.474;2023-06-22T08:34:23;101275.50;;;22.83;68.67
55755;BME280;41674;52.290;-1.474;2023-06-22T08:36:52;101277.50;;;22.88;68.77
55755;BME280;41674;52.290;-1.474;2023-06-22T08:39:22;101275.37;;;23.07;67.07
55755;BME280;41674;52.290;-1.474;2023-06-22T08:41:51;101268.32;;;23.86;65.64
55755;BME280;41674;52.290;-1.474;2023-06-22T08:44:20;101275.54;;;22.24;70.09
55755;BME280;41674;52.290;-1.474;2023-06-22T08:46:50;101275.16;;;22.82;67.89
55755;BME280;41674;52.290;-1.474;2023-06-22T08:49:19;101275.24;;;22.44;72.29
55755;BME280;41674;52.290;-1.474;2023-06-22T08:51:48;101273.32;;;21.89;71.80
55755;BME280;41674;52.290;-1.474;2023-06-22T08:54:18;101276.73;;;22.31;72.94
55755;BME280;41674;52.290;-1.474;2023-06-22T08:56:47;101270.63;;;23.16;66.38
55755;BME280;41674;52.290;-1.474;2023-06-22T08:59:17;101270.92;;;23.21;67.77
55755;BME280;41674;52.290;-1.474;2023-06-22T09:01:46;101270.72;;;23.66;63.88
55755;BME280;41674;52.290;-1.474;2023-06-22T09:04:16;101270.57;;;24.29;62.39
55755;BME280;41674;52.290;-1.474;2023-06-22T09:06:45;101271.38;;;24.18;64.05
55755;BME280;41674;52.290;-1.474;2023-06-22T09:09:16;101269.85;;;24.08;65.48
55755;BME280;41674;52.290;-1.474;2023-06-22T09:11:44;101271.05;;;24.31;62.56
55755;BME280;41674;52.290;-1.474;2023-06-22T09:14:13;101273.05;;;24.72;60.31
55755;BME280;41674;52.290;-1.474;2023-06-22T09:16:43;101275.71;;;25.34;59.84
55755;BME280;41674;52.290;-1.474;2023-06-22T09:19:13;101277.77;;;25.20;58.03
55755;BME280;41674;52.290;-1.474;2023-06-22T09:21:45;101281.92;;;25.14;59.87
55755;BME280;41674;52.290;-1.474;2023-06-22T09:24:12;101283.96;;;23.66;63.31
55755;BME280;41674;52.290;-1.474;2023-06-22T09:26:41;101289.16;;;25.05;58.24
55755;BME280;41674;52.290;-1.474;2023-06-22T09:29:10;101290.36;;;24.05;60.57
55755;BME280;41674;52.290;-1.474;2023-06-22T09:31:40;101283.64;;;25.02;56.95
55755;BME280;41674;52.290;-1.474;2023-06-22T09:34:09;101285.79;;;25.02;54.64
55755;BME280;41674;52.290;-1.474;2023-06-22T09:36:40;101282.89;;;26.06;53.16
55755;BME280;41674;52.290;-1.474;2023-06-22T09:39:08;101281.84;;;26.35;53.20
55755;BME280;41674;52.290;-1.474;2023-06-22T09:41:38;101291.48;;;24.80;55.17
55755;BME280;41674;52.290;-1.474;2023-06-22T09:44:07;101286.37;;;26.24;55.55
55755;BME280;41674;52.290;-1.474;2023-06-22T09:46:37;101289.33;;;25.76;56.18
55755;BME280;41674;52.290;-1.474;2023-06-22T09:49:06;101291.30;;;25.18;59.79
55755;BME280;41674;52.290;-1.474;2023-06-22T09:51:35;101292.67;;;24.01;58.71
55755;BME280;41674;52.290;-1.474;2023-06-22T09:54:05;101294.23;;;24.80;56.84
55755;BME280;41674;52.290;-1.474;2023-06-22T09:56:34;101300.15;;;24.39;56.34
55755;BME280;41674;52.290;-1.474;2023-06-22T09:59:04;101295.36;;;25.10;56.26
55755;BME280;41674;52.290;-1.474;2023-06-22T10:01:33;101288.78;;;26.07;53.25
55755;BME280;41674;52.290;-1.474;2023-06-22T10:04:03;101290.10;;;26.50;55.06
55755;BME280;41674;52.290;-1.474;2023-06-22T10:06:32;101292.52;;;25.23;55.87
55755;BME280;41674;52.290;-1.474;2023-06-22T10:09:02;101288.04;;;26.68;52.54
55755;BME280;41674;52.290;-1.474;2023-06-22T10:11:31;101294.01;;;25.00;55.15
55755;BME280;41674;52.290;-1.474;2023-06-22T10:14:01;101294.44;;;26.16;52.80
55755;BME280;41674;52.290;-1.474;2023-06-22T10:16:31;101292.71;;;25.24;53.64
55755;BME280;41674;52.290;-1.474;2023-06-22T10:18:59;101288.86;;;25.87;54.18
55755;BME280;41674;52.290;-1.474;2023-06-22T10:21:28;101287.72;;;25.75;53.76
55755;BME280;41674;52.290;-1.474;2023-06-22T10:23:57;101292.78;;;25.37;55.40
55755;BME280;41674;52.290;-1.474;2023-06-22T10:26:27;101294.13;;;26.05;55.13
55755;BME280;41674;52.290;-1.474;2023-06-22T10:28:56;101297.18;;;25.56;57.92
55755;BME280;41674;52.290;-1.474;2023-06-22T10:31:26;101295.57;;;25.47;55.15
55755;BME280;41674;52.290;-1.474;2023-06-22T10:33:55;101296.75;;;25.22;57.48
55755;BME280;41674;52.290;-1.474;2023-06-22T10:36:24;101299.47;;;24.65;57.96
55755;BME280;41674;52.290;-1.474;2023-06-22T10:38:54;101300.71;;;24.75;57.42
55755;BME280;41674;52.290;-1.474;2023-06-22T10:41:23;101298.90;;;24.39;58.88
55755;BME280;41674;52.290;-1.474;2023-06-22T10:43:52;101296.44;;;25.26;57.94
55755;BME280;41674;52.290;-1.474;2023-06-22T10:46:23;101293.43;;;24.36;56.73
55755;BME280;41674;52.290;-1.474;2023-06-22T10:48:52;101295.74;;;23.94;59.46
55755;BME280;41674;52.290;-1.474;2023-06-22T10:51:21;101294.38;;;24.46;56.94
55755;BME280;41674;52.290;-1.474;2023-06-22T10:53:51;101294.73;;;24.89;57.69
55755;BME280;41674;52.290;-1.474;2023-06-22T10:56:20;101295.45;;;25.28;54.46
55755;BME280;41674;52.290;-1.474;2023-06-22T10:58:49;101296.32;;;25.61;51.03
55755;BME280;41674;52.290;-1.474;2023-06-22T11:01:20;101296.27;;;25.95;50.34
55755;BME280;41674;52.290;-1.474;2023-06-22T11:03:48;101301.56;;;25.39;56.35
55755;BME280;41674;52.290;-1.474;2023-06-22T11:06:18;101295.74;;;25.81;54.96
55755;BME280;41674;52.290;-1.474;2023-06-22T11:08:47;101291.82;;;24.84;57.90
55755;BME280;41674;52.290;-1.474;2023-06-22T11:11:16;101288.07;;;25.33;58.22
55755;BME280;41674;52.290;-1.474;2023-06-22T11:13:46;101288.69;;;25.53;54.82
55755;BME280;41674;52.290;-1.474;2023-06-22T11:16:15;101290.85;;;25.06;55.19
55755;BME280;41674;52.290;-1.474;2023-06-22T11:18:44;101289.02;;;25.29;51.82
55755;BME280;41674;52.290;-1.474;2023-06-22T11:21:13;101283.89;;;25.80;52.55
55755;BME280;41674;52.290;-1.474;2023-06-22T11:23:43;101282.03;;;27.14;50.94
55755;BME280;41674;52.290;-1.474;2023-06-22T11:26:12;101283.46;;;26.62;54.18
55755;BME280;41674;52.290;-1.474;2023-06-22T11:28:42;101280.06;;;26.32;51.21
55755;BME280;41674;52.290;-1.474;2023-06-22T11:31:11;101285.95;;;26.82;53.90
55755;BME280;41674;52.290;-1.474;2023-06-22T11:33:41;101286.19;;;27.36;48.59
55755;BME280;41674;52.290;-1.474;2023-06-22T11:36:10;101283.57;;;27.02;49.47
55755;BME280;41674;52.290;-1.474;2023-06-22T11:38:40;101282.27;;;27.42;50.88
55755;BME280;41674;52.290;-1.474;2023-06-22T11:41:10;101280.33;;;27.24;45.74
55755;BME280;41674;52.290;-1.474;2023-06-22T11:43:39;101278.85;;;26.69;45.99
55755;BME280;41674;52.290;-1.474;2023-06-22T11:46:08;101278.78;;;26.47;45.56
55755;BME280;41674;52.290;-1.474;2023-06-22T11:48:37;101281.48;;;27.06;42.87
55755;BME280;41674;52.290;-1.474;2023-06-22T11:51:07;101278.86;;;26.48;44.26
55755;BME280;41674;52.290;-1.474;2023-06-22T11:53:36;101275.81;;;27.69;44.07
55755;BME280;41674;52.290;-1.474;2023-06-22T11:56:06;101273.96;;;27.66;42.82
55755;BME280;41674;52.290;-1.474;2023-06-22T11:58:35;101271.21;;;27.40;42.80
55755;BME280;41674;52.290;-1.474;2023-06-22T12:03:35;101270.82;;;26.23;43.98
55755;BME280;41674;52.290;-1.474;2023-06-22T12:06:04;101275.37;;;27.07;42.35
55755;BME280;41674;52.290;-1.474;2023-06-22T12:08:33;101273.44;;;27.02;44.63
55755;BME280;41674;52.290;-1.474;2023-06-22T12:11:03;101271.25;;;27.38;43.83
55755;BME280;41674;52.290;-1.474;2023-06-22T12:13:33;101270.18;;;27.40;43.45
55755;BME280;41674;52.290;-1.474;2023-06-22T12:18:32;101272.16;;;26.69;42.61
55755;BME280;41674;52.290;-1.474;2023-06-22T12:21:01;101269.04;;;26.21;44.31
55755;BME280;41674;52.290;-1.474;2023-06-22T12:23:30;101270.96;;;26.94;45.53
55755;BME280;41674;52.290;-1.474;2023-06-22T12:26:00;101271.59;;;27.04;42.11
55755;BME280;41674;52.290;-1.474;2023-06-22T12:28:29;101271.44;;;26.81;44.84
55755;BME280;41674;52.290;-1.474;2023-06-22T12:30:58;101269.73;;;25.96;46.80
55755;BME280;41674;52.290;-1.474;2023-06-22T12:33:28;101267.61;;;25.86;47.99
55755;BME280;41674;52.290;-1.474;2023-06-22T12:35:57;101270.00;;;25.43;52.08
55755;BME280;41674;52.290;-1.474;2023-06-22T12:38:27;101262.57;;;25.55;52.34
55755;BME280;41674;52.290;-1.474;2023-06-22T12:40:57;101266.88;;;24.90;53.01
55755;BME280;41674;52.290;-1.474;2023-06-22T12:43:26;101266.82;;;24.77;52.13
55755;BME280;41674;52.290;-1.474;2023-06-22T12:45:55;101262.73;;;25.42;53.09
55755;BME280;41674;52.290;-1.474;2023-06-22T12:48:26;101259.12;;;25.34;53.85
55755;BME280;41674;52.290;-1.474;2023-06-22T12:50:54;101255.66;;;24.90;54.69
55755;BME280;41674;52.290;-1.474;2023-06-22T12:53:24;101257.63;;;25.24;54.01
55755;BME280;41674;52.290;-1.474;2023-06-22T12:55:53;101255.11;;;24.82;56.80
55755;BME280;41674;52.290;-1.474;2023-06-22T12:58:23;101253.10;;;24.92;56.90
55755;BME280;41674;52.290;-1.474;2023-06-22T13:00:52;101244.08;;;26.25;53.95
55755;BME280;41674;52.290;-1.474;2023-06-22T13:03:21;101243.57;;;26.06;52.11